createdAt,value
2023-01-20T00:00:44.808Z,99680.89
2023-01-20T00:05:53.069Z,99688.52
2023-01-20T00:10:54.648Z,99691.74
2023-01-20T00:15:56.410Z,99695.14
2023-01-20T00:21:03.457Z,99697.67
2023-01-20T00:26:11.448Z,99703.79
2023-01-20T00:31:16.496Z,99708.20
2023-01-20T00:36:20.050Z,99715.67
2023-01-20T00:41:21.587Z,99732.46
2023-01-20T00:46:23.365Z,99745.70
2023-01-20T00:51:24.924Z,99751.81
2023-01-20T00:56:26.639Z,99755.71
2023-01-20T01:01:28.166Z,99761.13
2023-01-20T01:06:29.743Z,99769.27
2023-01-20T01:11:31.348Z,99769.27
2023-01-20T01:16:33.032Z,99771.83
2023-01-20T01:21:34.749Z,99777.42
2023-01-20T01:26:36.215Z,99791.00
2023-01-20T01:31:39.059Z,99794.73
2023-01-20T01:36:40.867Z,99788.45
2023-01-20T01:41:42.357Z,99788.45
2023-01-20T01:46:43.952Z,99794.23
2023-01-20T01:51:51.429Z,99790.65
2023-01-20T01:56:53.799Z,99788.95
2023-01-20T02:01:56.204Z,99792.15
2023-01-20T02:07:06.436Z,99782.80
2023-01-20T02:12:15.472Z,99780.59
2023-01-20T02:17:22.681Z,99796.70
2023-01-20T02:23:06.908Z,99790.92
2023-01-20T02:28:23.471Z,99795.15
2023-01-20T02:33:56.361Z,99802.27
2023-01-20T02:39:01.794Z,99810.42
2023-01-20T02:44:21.090Z,99811.77
2023-01-20T02:49:32.861Z,99800.88
2023-01-20T02:54:39.032Z,99794.08
2023-01-20T02:59:45.764Z,99791.71
2023-01-20T03:05:01.625Z,99802.55
2023-01-20T03:10:09.417Z,99803.88
2023-01-20T03:15:12.123Z,99813.50
2023-01-20T03:20:14.167Z,99827.52
2023-01-20T03:25:18.943Z,99834.95
2023-01-20T03:30:21.405Z,99844.02
2023-01-20T03:35:23.869Z,99845.60
2023-01-20T03:40:32.443Z,99834.89
2023-01-20T03:45:46.696Z,99843.48
2023-01-20T03:50:55.030Z,99848.74
2023-01-20T03:56:10.320Z,99846.73
2023-01-20T04:01:17.781Z,99856.06
2023-01-20T04:06:23.659Z,99866.88
2023-01-20T04:11:27.232Z,99890.23
2023-01-20T04:16:28.780Z,99908.76
2023-01-20T04:21:45.386Z,99910.23
2023-01-20T04:26:47.156Z,99918.13
2023-01-20T04:31:48.669Z,99924.26
2023-01-20T04:36:50.136Z,99925.63
2023-01-20T04:41:51.722Z,99940.19
2023-01-20T04:46:58.410Z,99948.02
2023-01-20T04:51:59.929Z,99954.65
2023-01-20T04:57:01.395Z,99953.97
2023-01-20T05:02:02.994Z,99960.40
2023-01-20T05:07:04.626Z,99959.00
2023-01-20T05:12:06.155Z,99954.27
2023-01-20T05:17:07.941Z,99956.81
2023-01-20T05:22:09.889Z,99956.55
2023-01-20T05:27:11.427Z,99972.58
2023-01-20T05:32:12.897Z,99998.42
2023-01-20T05:37:17.699Z,100006.13
2023-01-20T05:42:19.291Z,100012.96
2023-01-20T05:47:20.832Z,100034.04
2023-01-20T05:52:26.413Z,100050.73
2023-01-20T05:57:27.996Z,100067.70
2023-01-20T06:02:31.223Z,100080.07
2023-01-20T06:07:32.809Z,100087.30
2023-01-20T06:12:34.305Z,100096.34
2023-01-20T06:17:36.071Z,100114.89
2023-01-20T06:22:37.844Z,100132.06
2023-01-20T06:27:39.454Z,100139.86
2023-01-20T06:32:41.160Z,100140.68
2023-01-20T06:37:42.649Z,100152.41
2023-01-20T06:42:44.252Z,100151.77
2023-01-20T06:47:49.507Z,100153.89
2023-01-20T06:52:50.970Z,100154.21
2023-01-20T06:57:53.952Z,100158.84
2023-01-20T07:02:55.428Z,100159.97
2023-01-20T07:07:56.885Z,100165.29
2023-01-20T07:12:58.363Z,100168.77
2023-01-20T07:17:59.832Z,100174.08
2023-01-20T07:23:02.298Z,100187.89
2023-01-20T07:28:04.918Z,100196.98
2023-01-20T07:33:06.440Z,100191.84
2023-01-20T07:38:07.956Z,100187.55
2023-01-20T07:43:09.481Z,100190.14
2023-01-20T07:48:11.130Z,100189.27
2023-01-20T07:53:12.760Z,100188.40
2023-01-20T07:58:14.279Z,100185.00
2023-01-20T08:03:16.304Z,100183.73
2023-01-20T08:08:17.942Z,100182.46
2023-01-20T08:13:19.417Z,100179.13
2023-01-20T08:18:20.983Z,100175.02
2023-01-20T08:23:22.657Z,100182.85
2023-01-20T08:28:24.192Z,100191.21
2023-01-20T08:33:25.900Z,100191.95
2023-01-20T08:38:27.408Z,100186.34
2023-01-20T08:43:29.099Z,100182.73
2023-01-20T08:48:30.736Z,100181.34
2023-01-20T08:53:32.500Z,100185.90
2023-01-20T08:58:34.087Z,100190.65
2023-01-20T09:03:35.607Z,100189.61
2023-01-20T09:08:37.946Z,100198.11
2023-01-20T09:13:40.116Z,100205.10
2023-01-20T09:18:42.008Z,100210.30
2023-01-20T09:23:43.525Z,100221.98
2023-01-20T09:28:46.072Z,100238.77
2023-01-20T09:33:47.856Z,100245.34
2023-01-20T09:39:07.989Z,100248.92
2023-01-20T09:44:46.993Z,100260.23
2023-01-20T09:50:44.046Z,100267.00
2023-01-20T09:55:56.160Z,100265.06
2023-01-20T10:01:24.497Z,100260.45
2023-01-20T10:06:34.982Z,100267.89
2023-01-20T10:11:40.868Z,100269.09
2023-01-20T10:16:51.001Z,100266.71
2023-01-20T10:22:18.845Z,100265.55
2023-01-20T10:27:20.513Z,100266.90
2023-01-20T10:32:41.158Z,100273.21
2023-01-20T10:37:42.892Z,100276.54
2023-01-20T10:42:58.529Z,100281.99
2023-01-20T10:48:07.120Z,100283.84
2023-01-20T10:53:27.228Z,100283.77
2023-01-20T10:58:32.565Z,100286.20
2023-01-20T11:03:42.071Z,100292.05
2023-01-20T11:08:44.540Z,100291.17
2023-01-20T11:13:46.944Z,100285.29
2023-01-20T11:19:03.360Z,100285.54
2023-01-20T11:24:33.767Z,100290.17
2023-01-20T11:29:42.308Z,100289.65
2023-01-20T11:34:49.716Z,100291.13
2023-01-20T11:39:51.602Z,100287.13
2023-01-20T11:45:19.558Z,100298.56
2023-01-20T11:50:31.776Z,100301.17
2023-01-20T11:55:42.072Z,100301.77
2023-01-20T12:00:44.657Z,100311.58
2023-01-20T12:06:12.211Z,100319.10
2023-01-20T12:11:18.929Z,100331.63
2023-01-20T12:16:21.894Z,100347.70
2023-01-20T12:21:31.927Z,100358.46
2023-01-20T12:26:35.564Z,100370.00
2023-01-20T12:31:37.336Z,100365.77
2023-01-20T12:37:07.894Z,100363.24
2023-01-20T12:42:37.497Z,100364.80
2023-01-20T12:48:00.473Z,100353.95
2023-01-20T12:53:24.208Z,100335.66
2023-01-20T12:58:44.328Z,100339.85
2023-01-20T13:04:23.207Z,100337.09
2023-01-20T13:09:44.710Z,100337.84
2023-01-20T13:14:53.138Z,100336.41
2023-01-20T13:19:59.290Z,100338.96
2023-01-20T13:25:04.819Z,100344.38
2023-01-20T13:30:28.908Z,100348.90
2023-01-20T13:35:30.586Z,100353.23
2023-01-20T13:40:37.928Z,100357.77
2023-01-20T13:45:39.537Z,100356.41
2023-01-20T13:50:42.703Z,100351.32
2023-01-20T13:55:44.185Z,100343.15
2023-01-20T14:00:49.171Z,100346.92
2023-01-20T14:05:56.593Z,100356.46
2023-01-20T14:11:16.215Z,100366.05
2023-01-20T14:16:26.815Z,100374.91
2023-01-20T14:21:31.475Z,100377.86
2023-01-20T14:26:33.361Z,100384.46
2023-01-20T14:31:46.382Z,100389.89
2023-01-20T14:36:48.634Z,100380.30
2023-01-20T14:41:52.675Z,100388.35
2023-01-20T14:46:57.743Z,100400.67
2023-01-20T14:52:01.304Z,100418.95
2023-01-20T14:57:12.498Z,100415.98
2023-01-20T15:02:28.280Z,100417.63
2023-01-20T15:07:29.980Z,100413.10
2023-01-20T15:12:54.293Z,100409.15
2023-01-20T15:18:11.162Z,100425.98
2023-01-20T15:23:22.443Z,100432.13
2023-01-20T15:28:27.873Z,100421.83
2023-01-20T15:33:29.648Z,100434.14
2023-01-20T15:38:32.446Z,100442.99
2023-01-20T15:43:33.914Z,100441.76
2023-01-20T15:48:35.433Z,100438.59
2023-01-20T15:53:37.017Z,100423.06
2023-01-20T15:58:39.416Z,100423.55
2023-01-20T16:03:41.376Z,100433.48
2023-01-20T16:08:48.528Z,100448.50
2023-01-20T16:13:50.070Z,100453.16
2023-01-20T16:18:51.676Z,100463.90
2023-01-20T16:23:53.163Z,100475.68
2023-01-20T16:28:57.701Z,100476.55
2023-01-20T16:33:59.292Z,100491.77
2023-01-20T16:39:00.962Z,100496.70
2023-01-20T16:44:04.229Z,100497.90
2023-01-20T16:49:05.751Z,100493.07
2023-01-20T16:54:08.863Z,100495.44
2023-01-20T16:59:10.396Z,100493.95
2023-01-20T17:04:12.153Z,100498.79
2023-01-20T17:09:14.134Z,100503.52
2023-01-20T17:14:15.696Z,100501.27
2023-01-20T17:19:17.867Z,100504.83
2023-01-20T17:24:19.471Z,100508.14
2023-01-20T17:29:22.112Z,100511.59
2023-01-20T17:34:23.846Z,100512.18
2023-01-20T17:39:25.440Z,100506.33
2023-01-20T17:44:27.024Z,100507.23
2023-01-20T17:49:28.499Z,100506.77
2023-01-20T17:54:30.276Z,100514.66
2023-01-20T17:59:31.886Z,100515.90
2023-01-20T18:04:33.437Z,100518.77
2023-01-20T18:09:35.662Z,100526.36
2023-01-20T18:14:37.140Z,100524.36
2023-01-20T18:19:39.162Z,100523.67
2023-01-20T18:24:40.627Z,100529.50
2023-01-20T18:29:42.100Z,100528.61
2023-01-20T18:34:43.638Z,100527.45
2023-01-20T18:39:45.167Z,100529.60
2023-01-20T18:44:46.845Z,100529.21
2023-01-20T18:49:48.348Z,100530.92
2023-01-20T18:54:49.872Z,100531.28
2023-01-20T18:59:51.349Z,100539.21
2023-01-20T19:04:52.901Z,100539.14
2023-01-20T19:09:54.790Z,100537.46
2023-01-20T19:14:56.417Z,100538.20
2023-01-20T19:19:57.885Z,100536.08
2023-01-20T19:24:59.431Z,100531.34
2023-01-20T19:30:01.136Z,100537.41
2023-01-20T19:35:02.640Z,100538.47
2023-01-20T19:40:05.217Z,100540.31
2023-01-20T19:45:07.865Z,100533.92
2023-01-20T19:50:10.652Z,100531.52
2023-01-20T19:55:12.593Z,100522.27
2023-01-20T20:00:14.910Z,100527.14
2023-01-20T20:05:16.923Z,100511.59
2023-01-20T20:10:18.867Z,100515.71
2023-01-20T20:15:20.709Z,100517.77
2023-01-20T20:20:22.304Z,100519.13
2023-01-20T20:25:23.809Z,100521.95
2023-01-20T20:30:25.381Z,100515.15
2023-01-20T20:35:26.890Z,100504.46
2023-01-20T20:40:28.451Z,100497.31
2023-01-20T20:45:30.697Z,100499.83
2023-01-20T20:50:32.294Z,100502.71
2023-01-20T20:55:34.190Z,100502.20
2023-01-20T21:00:37.255Z,100499.15
2023-01-20T21:05:38.909Z,100504.38
2023-01-20T21:10:41.559Z,100492.67
2023-01-20T21:15:43.850Z,100489.81
2023-01-20T21:20:45.435Z,100487.02
2023-01-20T21:25:46.918Z,100493.91
2023-01-20T21:30:48.432Z,100494.63
2023-01-20T21:35:49.999Z,100482.88
2023-01-20T21:41:01.233Z,100490.61
2023-01-20T21:46:02.958Z,100491.56
2023-01-20T21:51:23.517Z,100487.14
2023-01-20T21:56:25.012Z,100482.14
2023-01-20T22:01:26.564Z,100478.13
2023-01-20T22:06:28.043Z,100476.65
2023-01-20T22:11:29.613Z,100476.40
2023-01-20T22:16:32.319Z,100461.98
2023-01-20T22:21:34.144Z,100449.59
2023-01-20T22:26:35.643Z,100446.17
2023-01-20T22:31:37.261Z,100443.66
2023-01-20T22:36:39.344Z,100441.63
2023-01-20T22:41:41.520Z,100443.33
2023-01-20T22:46:43.069Z,100439.81
2023-01-20T22:51:44.579Z,100428.95
2023-01-20T22:56:46.129Z,100420.19
2023-01-20T23:01:48.396Z,100410.36
2023-01-20T23:06:49.923Z,100401.48
2023-01-20T23:11:51.439Z,100407.66
2023-01-20T23:16:52.998Z,100397.91
2023-01-20T23:21:54.755Z,100393.66
2023-01-20T23:26:56.246Z,100390.15
2023-01-20T23:31:57.853Z,100386.86
2023-01-20T23:36:59.554Z,100392.14
2023-01-20T23:42:01.089Z,100393.76
2023-01-20T23:47:02.633Z,100398.50
2023-01-20T23:52:05.231Z,100401.39
2023-01-20T23:57:06.776Z,100399.87
